Time;durP1;ratioP1;P1;durP2;ratioP2;P2;SDS_P1;SDS_P2;PMS_P1;PMS_P2;Temp;Humidity;BMP_temperature;BMP_pressure;BME280_temperature;BME280_humidity;BME280_pressure;Samples;Min_cycle;Max_cycle;Signal;HPM_P1;HPM_P2
2022/05/24 00:01:39;;;;;;;8.67;5.60;;;;;;;13.69;70.15;99867.17;5228162;56;1139015;-71
2022/05/24 00:06:44;;;;;;;15.83;5.87;;;;;;;13.62;71.44;99855.48;5228152;56;1137095;-70
2022/05/24 00:11:50;;;;;;;10.57;5.57;;;;;;;13.56;71.70;99856.61;5227996;56;1139036;-72
2022/05/24 00:16:56;;;;;;;8.43;4.70;;;;;;;13.56;72.23;99840.67;5228132;56;1139109;-71
2022/05/24 00:22:04;;;;;;;6.40;4.57;;;;;;;13.55;72.04;99835.02;5228090;56;1136965;-72
2022/05/24 00:27:10;;;;;;;6.23;4.77;;;;;;;13.50;73.42;99831.97;5228278;56;1136921;-71
2022/05/24 00:32:15;;;;;;;5.70;3.83;;;;;;;13.48;73.44;99831.29;5228178;56;1136836;-70
2022/05/24 00:37:25;;;;;;;8.17;4.07;;;;;;;13.46;72.81;99810.19;5216185;56;1137014;-70
2022/05/24 00:42:33;;;;;;;9.90;4.73;;;;;;;13.43;73.07;99803.05;5220844;56;1137176;-72
2022/05/24 00:47:54;;;;;;;5.70;4.28;;;;;;;13.37;74.16;99800.02;5228322;56;1137186;-72
2022/05/24 00:53:27;;;;;;;8.83;4.10;;;;;;;13.32;74.37;99800.12;5228131;56;1137375;-70
2022/05/24 00:58:51;;;;;;;8.33;4.13;;;;;;;13.34;74.21;99795.50;5227594;56;1137071;-70
2022/05/24 01:03:57;;;;;;;4.47;4.07;;;;;;;13.37;74.40;99791.20;5136726;56;1137030;-71
2022/05/24 01:09:10;;;;;;;7.00;4.70;;;;;;;13.35;75.00;99769.28;5228228;56;1136929;-72
2022/05/24 01:14:18;;;;;;;6.75;4.30;;;;;;;13.34;74.66;99772.92;5228994;56;1137259;-69
2022/05/24 01:19:41;;;;;;;13.53;5.33;;;;;;;13.28;74.78;99771.73;5189098;56;1134925;-71
2022/05/24 01:24:53;;;;;;;7.83;4.53;;;;;;;13.25;75.02;99757.44;5159570;56;1137166;-70
2022/05/24 01:29:58;;;;;;;9.50;4.50;;;;;;;13.29;75.11;99750.00;5165099;56;1134868;-70
2022/05/24 01:40:29;;;;;;;3.87;3.50;;;;;;;13.26;75.96;99741.84;5209177;56;1134854;-70
2022/05/24 01:45:41;;;;;;;5.60;4.30;;;;;;;13.28;75.59;99753.64;5221563;56;1134884;-72
2022/05/24 01:50:48;;;;;;;4.20;3.63;;;;;;;13.28;75.26;99743.02;5228488;56;1134062;-72
2022/05/24 01:55:58;;;;;;;6.67;4.47;;;;;;;13.26;75.62;99739.19;5235176;56;1134766;-69
2022/05/24 02:01:11;;;;;;;5.77;3.67;;;;;;;13.29;75.53;99736.72;5242531;56;1133153;-70
2022/05/24 02:06:27;;;;;;;8.20;4.17;;;;;;;13.34;75.88;99721.96;5242328;56;1136911;-72
2022/05/24 02:11:34;;;;;;;4.97;4.57;;;;;;;13.32;76.25;99705.84;5235807;56;1136977;-72
2022/05/24 02:16:45;;;;;;;15.17;4.93;;;;;;;13.35;76.06;99700.22;5074730;57;1137034;-70
2022/05/24 02:21:55;;;;;;;6.33;4.13;;;;;;;13.35;76.04;99690.44;5005144;57;1139078;-70
2022/05/24 02:27:02;;;;;;;5.83;4.73;;;;;;;13.37;76.31;99687.63;5072196;57;1136934;-70
2022/05/24 02:32:08;;;;;;;11.90;4.00;;;;;;;13.36;75.75;99669.53;5075288;57;1136520;-72
2022/05/24 02:37:14;;;;;;;6.37;4.20;;;;;;;13.43;75.97;99676.38;5069613;57;1139092;-72
2022/05/24 02:42:21;;;;;;;6.40;4.30;;;;;;;13.45;75.66;99674.88;5143074;56;1136963;-71
2022/05/24 02:47:28;;;;;;;4.93;4.10;;;;;;;13.49;75.05;99682.87;5155707;56;1136953;-71
2022/05/24 02:52:34;;;;;;;4.33;3.80;;;;;;;13.51;74.76;99678.23;5155682;56;1137218;-71
2022/05/24 02:57:41;;;;;;;8.87;3.93;;;;;;;13.49;74.23;99671.75;5197411;56;1136949;-70
2022/05/24 03:02:46;;;;;;;6.33;3.57;;;;;;;13.49;74.18;99670.91;5218068;56;1137197;-71
2022/05/24 03:18:39;;;;;;;12.53;3.60;;;;;;;13.54;73.44;99662.82;5220720;56;974296;-72
2022/05/24 03:23:46;;;;;;;5.30;3.40;;;;;;;13.57;73.29;99665.66;5222742;56;1136977;-72
2022/05/24 03:28:51;;;;;;;5.43;3.67;;;;;;;13.57;73.02;99658.52;5239666;55;1137131;-70
2022/05/24 03:34:00;;;;;;;7.00;3.53;;;;;;;13.60;73.29;99646.22;5234264;56;1137187;-70
2022/05/24 03:39:07;;;;;;;3.53;3.07;;;;;;;13.60;73.29;99646.22;5220187;56;1136921;-72
2022/05/24 03:44:15;;;;;;;4.37;3.37;;;;;;;13.63;72.92;99641.09;5228476;56;1137110;-72
2022/05/24 03:49:22;;;;;;;4.00;3.20;;;;;;;13.63;72.93;99635.78;5228367;56;1137233;-72
2022/05/24 03:54:27;;;;;;;13.40;3.70;;;;;;;13.63;72.94;99630.46;5228286;55;1136958;-70
2022/05/24 03:59:34;;;;;;;3.03;2.80;;;;;;;13.66;73.17;99636.80;5240241;55;1139254;-70
2022/05/24 04:04:40;;;;;;;3.60;3.17;;;;;;;13.69;73.04;99642.63;5240350;55;1137119;-72
2022/05/24 04:09:47;;;;;;;3.65;3.30;;;;;;;13.68;73.28;99658.23;5183809;56;1137525;-70
2022/05/24 04:14:53;;;;;;;8.23;3.13;;;;;;;13.68;73.53;99662.71;5164691;56;1136840;-70
2022/05/24 04:19:58;;;;;;;6.80;2.93;;;;;;;13.68;73.59;99667.53;5164648;56;1134896;-71
2022/05/24 04:25:05;;;;;;;5.07;3.37;;;;;;;13.68;73.65;99671.52;5163939;56;1134887;-72
2022/05/24 04:30:14;;;;;;;7.87;3.60;;;;;;;13.71;74.71;99677.84;5188598;55;1135017;-71
2022/05/24 04:35:20;;;;;;;3.60;3.13;;;;;;;13.67;76.38;99682.30;5170888;56;1135226;-70
2022/05/24 04:45:33;;;;;;;6.60;3.87;;;;;;;13.44;80.42;99648.00;5210619;55;1135062;-71
2022/05/24 04:50:39;;;;;;;3.77;2.90;;;;;;;13.36;79.90;99645.63;5181692;56;1135097;-71
2022/05/24 04:55:47;;;;;;;5.33;3.63;;;;;;;13.29;81.29;99643.77;5155406;57;1134859;-70
2022/05/24 05:00:53;;;;;;;5.87;2.90;;;;;;;13.25;82.26;99641.92;5079932;57;1135081;-71
2022/05/24 05:05:58;;;;;;;6.63;3.83;;;;;;;13.29;82.36;99634.48;5145933;57;1135076;-70
2022/05/24 05:11:04;;;;;;;3.37;3.13;;;;;;;13.30;81.41;99640.09;5161730;57;1134887;-71
2022/05/24 05:16:10;;;;;;;3.57;3.27;;;;;;;13.29;81.68;99638.46;5240671;55;1135143;-71
2022/05/24 05:21:15;;;;;;;6.50;3.63;;;;;;;13.25;81.82;99619.84;5251323;55;1135201;-71
2022/05/24 05:26:21;;;;;;;3.50;3.10;;;;;;;13.33;80.89;99643.77;5251234;55;1135384;-71
2022/05/24 05:31:29;;;;;;;4.63;3.07;;;;;;;13.36;80.87;99648.28;5239170;55;1135253;-71
2022/05/24 05:36:35;;;;;;;3.70;3.20;;;;;;;13.43;81.03;99652.97;5186409;56;1134758;-71
2022/05/24 05:41:41;;;;;;;5.60;3.43;;;;;;;13.47;79.61;99644.50;5219921;56;1134866;-70
2022/05/24 05:46:47;;;;;;;7.60;3.33;;;;;;;13.50;79.82;99641.54;5182049;56;1132994;-71
2022/05/24 05:51:53;;;;;;;8.03;3.70;;;;;;;13.53;79.23;99633.26;5211401;56;21193;-69
2022/05/24 05:56:59;;;;;;;4.40;2.87;;;;;;;13.54;79.16;99640.23;5189146;56;1132777;-70
2022/05/24 06:02:05;;;;;;;7.47;3.30;;;;;;;13.56;78.88;99642.24;5128576;56;1137112;-72
2022/05/24 06:07:11;;;;;;;5.50;3.33;;;;;;;13.62;79.21;99646.06;5128443;56;1136827;-72
2022/05/24 06:12:17;;;;;;;5.40;3.63;;;;;;;13.66;79.04;99650.08;5164999;56;1136922;-72
2022/05/24 06:17:22;;;;;;;5.33;3.80;;;;;;;13.66;78.81;99652.73;5151403;56;1136983;-73
2022/05/24 06:22:28;;;;;;;3.10;2.83;;;;;;;13.64;78.96;99643.59;5164841;56;1136959;-70
2022/05/24 06:27:34;;;;;;;3.63;2.97;;;;;;;13.67;79.22;99650.41;5164991;56;1136973;-71
2022/05/24 06:32:40;;;;;;;4.87;3.67;;;;;;;13.65;79.03;99659.04;5171219;56;1136914;-71
2022/05/24 06:37:48;;;;;;;8.37;4.77;;;;;;;13.65;79.46;99656.38;5226377;55;1137067;-71
2022/05/24 06:42:54;;;;;;;7.03;4.67;;;;;;;13.61;79.14;99649.22;5246052;55;1137097;-70
2022/05/24 06:48:00;;;;;;;5.73;4.00;;;;;;;13.62;79.68;99663.34;5250383;55;1136971;-71
2022/05/24 06:53:06;;;;;;;5.67;4.00;;;;;;;13.66;79.52;99663.36;5229178;55;1136888;-69
2022/05/24 06:58:12;;;;;;;5.13;4.63;;;;;;;13.69;79.64;99661.72;5181533;56;1137085;-71
2022/05/24 07:03:19;;;;;;;9.87;4.47;;;;;;;13.69;80.56;99662.55;5249469;55;1137049;-70
2022/05/24 07:08:24;;;;;;;8.33;4.20;;;;;;;13.67;80.72;99665.86;5251534;55;1136852;-71
2022/05/24 07:13:30;;;;;;;4.57;3.90;;;;;;;13.69;80.84;99667.03;5245566;55;1137203;-70
2022/05/24 07:18:36;;;;;;;6.83;4.17;;;;;;;13.73;80.81;99667.06;5218114;56;1136946;-71
2022/05/24 07:23:43;;;;;;;5.27;4.40;;;;;;;13.77;81.46;99671.04;5218116;56;1136976;-70
2022/05/24 07:28:49;;;;;;;9.00;4.50;;;;;;;13.80;81.52;99679.20;5217994;56;1137012;-72
2022/05/24 07:33:54;;;;;;;4.03;3.73;;;;;;;13.86;81.41;99676.75;5217897;56;1136975;-71
2022/05/24 07:39:00;;;;;;;4.10;3.70;;;;;;;13.96;82.17;99672.61;5245219;55;1137181;-69
2022/05/24 07:49:30;;;;;;;5.72;4.65;;;;;;;14.06;82.60;99662.66;5285317;55;1139232;-71
2022/05/24 07:54:36;;;;;;;4.57;4.00;;;;;;;14.13;82.46;99662.36;5270996;55;1136978;-73
2022/05/24 07:59:43;;;;;;;5.70;4.03;;;;;;;14.19;82.86;99661.72;5222536;56;1136908;-71
2022/05/24 08:04:51;;;;;;;99.23;14.73;;;;;;;14.24;82.39;99667.36;5188212;56;1136964;-72
2022/05/24 08:09:57;;;;;;;52.60;7.60;;;;;;;14.33;83.28;99666.41;5201173;55;1141180;-71
2022/05/24 08:15:04;;;;;;;5.57;4.83;;;;;;;14.41;83.61;99662.44;5128785;57;1139189;-71
2022/05/24 08:20:11;;;;;;;115.93;17.53;;;;;;;14.48;82.54;99671.11;5166937;56;1136890;-71
2022/05/24 08:25:19;;;;;;;4.80;4.40;;;;;;;14.55;82.72;99674.76;5133026;57;1143455;-70
2022/05/24 08:30:24;;;;;;;5.07;4.57;;;;;;;14.64;82.83;99689.26;5133022;57;1136958;-70
2022/05/24 08:35:31;;;;;;;64.23;10.77;;;;;;;14.71;81.78;99684.92;5187581;56;1137159;-72
2022/05/24 08:40:41;;;;;;;6.20;4.10;;;;;;;14.78;80.79;99692.59;5218465;56;1141140;-70
2022/05/24 08:51:59;;;;;;;7.47;5.10;;;;;;;14.94;81.16;99692.25;5242090;55;1135052;-73
2022/05/24 08:57:10;;;;;;;11.20;5.97;;;;;;;15.02;80.84;99692.23;5138512;57;1134967;-72
2022/05/24 09:02:15;;;;;;;6.80;4.87;;;;;;;15.11;80.26;99700.57;5060495;57;1137392;-72
2022/05/24 09:07:31;;;;;;;15.07;4.53;;;;;;;15.39;80.72;99697.03;5056059;58;1134983;-73
2022/05/24 09:13:19;;;;;;;9.40;5.07;;;;;;;15.69;79.16;99691.48;5081269;58;1139009;-72
2022/05/24 09:18:50;;;;;;;7.63;5.43;;;;;;;15.78;77.85;99692.59;5036135;58;1137184;-72
2022/05/24 09:24:21;;;;;;;7.67;5.57;;;;;;;15.86;77.61;99690.41;5045244;58;1137180;-70
2022/05/24 09:29:27;;;;;;;5.60;5.00;;;;;;;15.89;78.19;99687.38;5098255;56;1137131;-71
2022/05/24 09:34:37;;;;;;;6.90;5.50;;;;;;;15.91;77.87;99688.55;5209708;56;1137187;-72
2022/05/24 09:39:47;;;;;;;5.73;5.07;;;;;;;15.88;77.72;99690.25;5209684;56;1136960;-71
2022/05/24 09:45:00;;;;;;;6.33;5.20;;;;;;;15.86;78.41;99707.75;5184685;56;1136973;-70
2022/05/24 09:50:29;;;;;;;8.38;4.97;;;;;;;15.85;78.51;99714.08;5208382;56;1136945;-72
2022/05/24 09:56:05;;;;;;;6.43;5.20;;;;;;;15.85;79.34;99706.08;5214125;56;1137191;-72
2022/05/24 10:01:12;;;;;;;11.50;5.97;;;;;;;15.95;79.20;99708.53;5143170;56;1134830;-71
2022/05/24 10:06:30;;;;;;;10.75;6.03;;;;;;;15.99;79.71;99706.69;5211096;56;1137005;-72
2022/05/24 10:11:50;;;;;;;7.10;6.37;;;;;;;16.00;79.92;99713.69;5182230;56;1137060;-72
2022/05/24 10:17:05;;;;;;;9.83;6.83;;;;;;;16.07;80.60;99713.81;5221644;55;1134872;-72
2022/05/24 10:22:21;;;;;;;6.72;5.34;;;;;;;16.14;80.84;99717.45;5072167;57;1135148;-71
2022/05/24 10:27:55;;;;;;;6.80;5.63;;;;;;;16.21;81.15;99720.24;4990911;59;1134968;-73
2022/05/24 10:39:11;;;;;;;9.20;6.23;;;;;;;16.24;82.67;99722.06;4983467;57;1137152;-70
2022/05/24 10:44:30;;;;;;;6.10;5.23;;;;;;;16.21;83.36;99726.41;5067815;57;1137174;-71
2022/05/24 10:49:47;;;;;;;6.70;5.80;;;;;;;16.19;82.90;99737.78;5067666;57;1137028;-70
2022/05/24 10:55:12;;;;;;;9.43;6.50;;;;;;;16.22;83.93;99743.25;5067731;57;1136944;-74
2022/05/24 11:00:25;;;;;;;9.57;7.23;;;;;;;16.13;85.18;99740.63;5067939;57;1137239;-72
2022/05/24 11:06:07;;;;;;;8.67;6.60;;;;;;;16.05;88.34;99745.98;5067751;58;1137278;-75
2022/05/24 11:11:32;;;;;;;10.93;7.47;;;;;;;15.95;87.06;99769.38;5081952;57;1136988;-74
2022/05/24 11:16:48;;;;;;;31.13;14.50;;;;;;;15.95;89.45;99763.20;5020532;58;1137236;-76
2022/05/24 11:22:16;;;;;;;19.43;8.30;;;;;;;16.02;89.87;99762.86;5038365;57;1139306;-74
2022/05/24 11:27:34;;;;;;;13.40;8.43;;;;;;;16.13;91.56;99757.14;5072902;57;1137262;-74
2022/05/24 11:32:51;;;;;;;14.90;9.57;;;;;;;16.29;91.81;99769.58;5072679;58;1137098;-74
2022/05/24 11:38:01;;;;;;;15.97;10.33;;;;;;;16.37;94.35;99777.03;5108264;57;1135204;-77
2022/05/24 11:43:33;;;;;;;26.37;19.60;;;;;;;16.40;92.51;99778.53;5093828;57;1141109;-78
2022/05/24 11:48:48;;;;;;;17.23;9.63;;;;;;;16.50;94.35;99767.12;5058889;58;1141594;-76
2022/05/24 11:53:54;;;;;;;13.10;10.37;;;;;;;16.67;95.13;99762.55;5009407;58;1139092;-74
2022/05/24 11:59:07;;;;;;;14.73;10.50;;;;;;;16.74;95.96;99752.33;5037774;58;1141159;-76
2022/05/24 12:10:01;;;;;;;12.33;9.50;;;;;;;16.88;94.76;99768.92;5000168;58;1141143;-74
2022/05/24 12:15:21;;;;;;;10.73;9.63;;;;;;;17.01;95.07;99758.98;4851118;60;1139084;-73
2022/05/24 12:20:40;;;;;;;62.67;32.50;;;;;;;17.17;95.46;99758.84;4905735;59;1139271;-72
2022/05/24 12:26:02;;;;;;;14.27;10.60;;;;;;;17.32;94.80;99751.38;4860655;59;1140595;-74
2022/05/24 12:31:26;;;;;;;13.37;10.70;;;;;;;17.49;94.63;99752.88;4883925;59;1141250;-75
2022/05/24 12:36:45;;;;;;;13.93;10.17;;;;;;;17.75;94.88;99745.28;4892374;60;1141353;-74
2022/05/24 12:41:58;;;;;;;16.20;11.27;;;;;;;18.16;93.12;99756.36;4922408;59;1139065;-72
2022/05/24 12:47:14;;;;;;;16.55;9.53;;;;;;;18.48;93.10;99756.95;4939058;59;1139273;-73
2022/05/24 12:52:26;;;;;;;13.90;10.60;;;;;;;18.71;88.67;99759.48;4976002;58;1137105;-77
2022/05/24 12:57:37;;;;;;;15.68;11.05;;;;;;;18.75;88.29;99769.64;4990510;58;1139659;-75
2022/05/24 13:02:45;;;;;;;17.33;11.07;;;;;;;18.79;87.85;99770.89;5007131;58;1139196;-73
2022/05/24 13:08:00;;;;;;;192.57;154.87;;;;;;;18.85;87.44;99772.00;5159000;57;1138960;-74
2022/05/24 13:13:15;;;;;;;20.37;18.48;;;;;;;18.90;87.43;99758.36;5188478;57;1143477;-75
2022/05/24 13:18:27;;;;;;;25.32;10.90;;;;;;;18.90;87.43;99758.36;5136568;56;1136948;-75
2022/05/24 13:23:42;;;;;;;13.40;9.27;;;;;;;18.99;87.16;99784.50;5136380;57;1141323;-75
2022/05/24 13:28:59;;;;;;;16.80;11.00;;;;;;;19.04;86.51;99780.75;5139635;56;1139057;-76
2022/05/24 13:34:23;;;;;;;21.07;9.60;;;;;;;19.03;86.98;99778.26;5190645;56;1141091;-75
2022/05/24 13:39:49;;;;;;;21.06;14.02;;;;;;;19.16;87.33;99779.72;5268427;56;1138992;-77
2022/05/24 13:45:18;;;;;;;10.53;9.43;;;;;;;19.37;87.60;99773.01;5263806;55;1141026;-77
2022/05/24 13:50:41;;;;;;;24.87;11.55;;;;;;;19.50;85.72;99783.04;5278535;55;1138977;-73
2022/05/24 13:56:00;;;;;;;14.33;9.37;;;;;;;19.48;85.78;99771.13;5258502;56;1141230;-77
2022/05/24 14:01:16;;;;;;;10.20;8.78;;;;;;;19.46;84.99;99777.70;5183589;56;1139082;-76
2022/05/24 14:06:25;;;;;;;12.95;9.58;;;;;;;19.44;84.86;99788.63;5173830;56;1139100;-75
2022/05/24 14:11:34;;;;;;;9.93;7.03;;;;;;;19.37;84.46;99797.14;5156846;56;1139010;-74
2022/05/24 14:16:41;;;;;;;10.78;7.97;;;;;;;19.31;84.92;99812.65;5109268;56;1136982;-74
2022/05/24 14:21:50;;;;;;;7.95;7.03;;;;;;;19.30;84.32;99819.03;5209740;55;1139075;-73
2022/05/24 14:27:00;;;;;;;15.35;8.30;;;;;;;19.27;84.16;99820.23;5115237;56;1137188;-74
2022/05/24 14:32:06;;;;;;;9.63;8.45;;;;;;;19.24;85.03;99817.14;5065977;57;1137344;-76
2022/05/24 14:37:12;;;;;;;8.14;7.32;;;;;;;19.27;85.69;99827.45;5123956;55;1135195;-77
2022/05/24 14:42:26;;;;;;;10.78;8.10;;;;;;;19.24;84.99;99814.45;5155131;56;1135136;-74
2022/05/24 14:47:28;;;;;;;10.78;8.65;;;;;;;19.23;85.07;99814.14;5155396;56;1136820;-75
2022/05/24 14:52:36;;;;;;;15.85;10.43;;;;;;;19.16;85.26;99819.42;5157401;56;1137217;-76
2022/05/24 14:57:41;;;;;;;10.32;9.23;;;;;;;19.08;85.63;99816.05;5113642;56;1139036;-75
2022/05/24 15:02:46;;;;;;;9.18;8.28;;;;;;;19.07;86.42;99788.92;5153282;56;1137465;-75
2022/05/24 15:19:00;;;;;;;16.33;12.03;;;;;;;19.29;86.49;99799.44;5190477;57;1141097;-74
2022/05/24 15:24:09;;;;;;;57.90;28.07;;;;;;;19.32;86.57;99792.35;5210230;56;1141024;-74
2022/05/24 15:29:15;;;;;;;17.35;11.30;;;;;;;19.33;86.79;99792.67;5142756;57;1141118;-75
2022/05/24 15:34:21;;;;;;;18.42;11.57;;;;;;;19.35;86.94;99799.19;5185454;57;1141429;-74
2022/05/24 15:39:27;;;;;;;13.50;10.98;;;;;;;19.34;87.27;99805.56;5198443;56;1141298;-76
2022/05/24 15:44:33;;;;;;;15.80;12.33;;;;;;;19.35;87.29;99805.06;5204709;56;1141541;-76
2022/05/24 15:49:39;;;;;;;29.10;17.05;;;;;;;19.30;87.36;99806.45;5204062;56;1141488;-76
2022/05/24 15:54:45;;;;;;;19.85;14.70;;;;;;;19.31;87.73;99816.16;5137898;56;1141634;-76
2022/05/24 15:59:50;;;;;;;22.30;13.35;;;;;;;19.26;88.40;99817.23;5124074;57;1141307;-76
2022/05/24 16:10:22;;;;;;;17.07;11.33;;;;;;;19.30;88.02;99805.63;5179421;56;1141420;-74
2022/05/24 16:15:29;;;;;;;14.20;10.65;;;;;;;19.28;88.42;99814.37;5163721;57;1141390;-77
2022/05/24 16:20:42;;;;;;;16.12;11.55;;;;;;;19.28;88.42;99825.92;5124522;57;1141052;-76
2022/05/24 16:25:48;;;;;;;23.05;13.45;;;;;;;19.33;87.46;99834.23;5204830;56;1141171;-76
2022/05/24 16:30:54;;;;;;;19.52;12.75;;;;;;;19.31;87.26;99832.25;5188054;56;1141143;-74
2022/05/24 16:35:59;;;;;;;22.13;11.55;;;;;;;19.35;87.22;99834.05;5147771;56;1141123;-76
2022/05/24 16:41:05;;;;;;;13.13;11.15;;;;;;;19.35;87.54;99829.19;5219334;56;1141052;-77
2022/05/24 16:46:12;;;;;;;16.25;12.13;;;;;;;19.32;87.15;99845.15;5202015;56;1141168;-77
2022/05/24 16:51:34;;;;;;;20.20;14.58;;;;;;;19.25;87.41;99854.96;5205047;56;1141036;-74
2022/05/24 17:01:56;;;;;;;;;;;;;;;19.13;88.26;99857.33;5218288;56;1141110;-75
2022/05/24 17:07:02;;;;;;;12.68;11.38;;;;;;;19.08;88.90;99857.59;5219582;56;974236;-75
2022/05/24 17:12:09;;;;;;;17.70;14.18;;;;;;;19.02;88.80;99860.52;5202768;56;1139226;-76
2022/05/24 17:17:15;;;;;;;20.10;12.80;;;;;;;19.00;89.03;99872.44;5111922;56;1141055;-75
2022/05/24 17:22:23;;;;;;;14.00;10.93;;;;;;;19.00;89.49;99879.97;5113905;56;1141528;-74
2022/05/24 17:27:29;;;;;;;22.17;13.03;;;;;;;18.96;89.80;99880.84;5175403;56;1141186;-76
2022/05/24 17:32:54;;;;;;;25.50;13.78;;;;;;;18.92;89.35;99878.75;5176713;56;1141129;-75
2022/05/24 17:38:01;;;;;;;26.07;15.32;;;;;;;18.83;89.53;99878.02;5136954;56;1139032;-74
2022/05/24 17:43:14;;;;;;;16.00;10.38;;;;;;;18.75;89.57;99888.02;5231246;55;1139046;-75
2022/05/24 17:48:21;;;;;;;24.57;16.12;;;;;;;18.77;89.43;99882.80;5233107;55;1139217;-73
2022/05/24 17:53:26;;;;;;;39.18;21.90;;;;;;;18.77;89.58;99888.67;5248842;55;1138915;-74
2022/05/24 17:58:32;;;;;;;32.23;15.83;;;;;;;18.71;89.40;99884.05;5224312;55;1139215;-74
2022/05/24 18:03:39;;;;;;;43.60;26.00;;;;;;;18.67;89.20;99890.28;5218189;56;1139367;-75
2022/05/24 18:08:44;;;;;;;17.55;10.98;;;;;;;18.67;89.37;99896.14;5212597;56;1139085;-74
2022/05/24 18:13:50;;;;;;;24.02;14.18;;;;;;;18.65;89.50;99907.04;5219003;56;1139177;-73
2022/05/24 18:18:57;;;;;;;21.55;12.35;;;;;;;18.58;89.58;99916.34;5225703;55;1139072;-75
2022/05/24 18:24:07;;;;;;;23.25;12.82;;;;;;;18.55;89.58;99922.03;5242649;55;1138936;-73
2022/05/24 18:34:49;;;;;;;19.62;12.55;;;;;;;18.45;90.01;99930.03;5240617;55;1141077;-75
2022/05/24 18:39:51;;;;;;;18.25;9.90;;;;;;;18.37;90.10;99935.45;5245985;55;1141127;-75
2022/05/24 18:44:58;;;;;;;10.53;8.67;;;;;;;18.35;90.47;99937.48;5233484;55;1139583;-73
2022/05/24 18:50:06;;;;;;;14.38;10.48;;;;;;;18.30;91.66;99939.39;5237279;55;1139040;-76
2022/05/24 18:55:12;;;;;;;17.00;11.97;;;;;;;18.27;90.41;99937.06;5238053;55;1141156;-76
2022/05/24 19:00:19;;;;;;;16.60;11.15;;;;;;;18.22;90.97;99930.91;5237644;55;1141150;-74
2022/05/24 19:05:26;;;;;;;15.25;10.60;;;;;;;18.18;90.57;99934.16;5243005;55;1141119;-74
2022/05/24 19:10:31;;;;;;;18.60;11.45;;;;;;;18.16;91.12;99942.88;5243092;55;1141176;-75
2022/05/24 19:15:38;;;;;;;19.52;14.45;;;;;;;18.05;91.81;99949.48;5238518;55;1141123;-75
2022/05/24 19:20:44;;;;;;;15.73;11.00;;;;;;;17.96;91.73;99951.08;5222843;56;1141158;-74
2022/05/24 19:25:51;;;;;;;17.87;11.33;;;;;;;17.91;93.13;99944.92;5236965;55;1141330;-76
2022/05/24 19:30:57;;;;;;;21.15;11.88;;;;;;;17.85;93.08;99955.02;5251424;55;1141143;-75
2022/05/24 19:36:03;;;;;;;15.50;10.77;;;;;;;17.77;93.32;99953.23;5244682;55;1141129;-75
2022/05/24 19:46:33;;;;;;;14.13;10.60;;;;;;;17.65;94.32;99943.13;5217730;56;1141163;-75
2022/05/24 19:51:43;;;;;;;13.40;10.50;;;;;;;17.58;93.78;99973.22;5217702;56;1141161;-75
2022/05/24 19:56:48;;;;;;;15.13;10.87;;;;;;;17.59;93.98;99985.58;5217743;56;1141111;-75
2022/05/24 20:01:54;;;;;;;18.86;10.94;;;;;;;17.62;94.34;99994.26;5217755;56;1141127;-75
2022/05/24 20:07:00;;;;;;;15.43;10.50;;;;;;;17.59;94.22;99994.10;5217850;55;1141158;-76
2022/05/24 20:12:11;;;;;;;18.32;10.15;;;;;;;17.58;93.98;100003.13;5233353;55;1141161;-73
2022/05/24 20:17:20;;;;;;;16.73;10.63;;;;;;;17.56;94.24;100003.34;5229877;55;1143257;-76
2022/05/24 20:22:25;;;;;;;14.47;11.00;;;;;;;17.49;94.39;100015.73;5231198;55;1143189;-78
2022/05/24 20:27:31;;;;;;;12.83;10.87;;;;;;;17.49;96.18;100026.92;5253124;55;1143260;-75
2022/05/24 20:32:37;;;;;;;16.80;10.70;;;;;;;17.46;95.26;100050.00;5189960;55;1143176;-76
2022/05/24 20:37:45;;;;;;;12.57;9.63;;;;;;;17.39;97.21;100059.23;5174921;56;1143216;-75
2022/05/24 20:42:51;;;;;;;17.53;11.07;;;;;;;17.33;100.00;100061.76;5165439;56;1141109;-74
2022/05/24 20:47:57;;;;;;;15.60;10.63;;;;;;;17.32;100.00;100071.62;5210823;55;1145571;-73
2022/05/24 20:53:03;;;;;;;19.37;10.87;;;;;;;17.27;100.00;100080.64;5181805;56;1145290;-75
2022/05/24 20:58:09;;;;;;;21.13;11.07;;;;;;;17.28;99.62;100089.50;5121514;57;1145356;-75
2022/05/24 21:03:23;;;;;;;18.27;12.20;;;;;;;17.37;99.42;100098.67;5186870;56;1143534;-73
2022/05/24 21:08:30;;;;;;;14.67;11.90;;;;;;;17.41;99.07;100101.84;5248225;55;1140996;-74
2022/05/24 21:13:35;;;;;;;18.10;10.43;;;;;;;17.47;98.94;100108.64;5273071;55;1141181;-77
2022/05/24 21:18:42;;;;;;;14.70;10.93;;;;;;;17.46;98.45;100115.50;5277745;55;1141367;-76
2022/05/24 21:23:48;;;;;;;15.50;10.73;;;;;;;17.38;98.17;100123.06;5268192;56;1141068;-75
2022/05/24 21:28:57;;;;;;;18.67;10.80;;;;;;;17.30;97.87;100124.41;5129561;57;1141162;-75
2022/05/24 21:34:02;;;;;;;12.37;9.20;;;;;;;17.21;98.61;100145.50;5203855;56;1141164;-75
2022/05/24 21:39:08;;;;;;;15.47;8.87;;;;;;;17.08;99.18;100132.67;5275546;55;1139102;-75
2022/05/24 21:44:15;;;;;;;9.77;7.67;;;;;;;16.98;100.00;100137.34;5310366;55;1139528;-77
2022/05/24 21:49:21;;;;;;;14.23;8.10;;;;;;;16.98;100.00;100137.34;5235525;55;1139057;-75
2022/05/24 21:54:26;;;;;;;12.60;5.93;;;;;;;16.97;100.00;100160.22;5221649;56;1141449;-76
2022/05/24 21:59:43;;;;;;;6.97;6.03;;;;;;;16.91;100.00;100162.25;5227614;56;1141200;-76
2022/05/24 22:04:45;;;;;;;8.30;5.80;;;;;;;16.86;100.00;100170.75;5221525;56;1139209;-77
2022/05/24 22:09:51;;;;;;;6.13;4.70;;;;;;;16.79;100.00;100177.28;5221549;56;1139025;-73
2022/05/24 22:14:57;;;;;;;4.87;3.90;;;;;;;16.76;100.00;100180.78;5218326;56;1139502;-76
2022/05/24 22:20:03;;;;;;;6.07;3.57;;;;;;;16.68;100.00;100192.28;5217994;56;1139283;-75
2022/05/24 22:25:09;;;;;;;3.20;2.80;;;;;;;16.62;99.64;100196.10;5183663;56;1136958;-74
2022/05/24 22:30:15;;;;;;;3.33;2.77;;;;;;;16.51;99.01;100211.42;5142356;57;1134916;-76
2022/05/24 22:35:21;;;;;;;5.00;2.83;;;;;;;16.42;98.33;100222.26;5145932;56;1139056;-75
2022/05/24 22:40:28;;;;;;;3.10;2.80;;;;;;;16.32;97.45;100227.75;5218311;56;1139015;-74
2022/05/24 22:45:36;;;;;;;8.70;2.83;;;;;;;16.25;97.22;100221.88;5218301;56;1139005;-74
2022/05/24 22:50:42;;;;;;;5.87;2.50;;;;;;;16.17;97.12;100222.71;5217771;56;1139038;-72
2022/05/24 22:55:48;;;;;;;3.13;2.83;;;;;;;16.11;96.93;100209.51;5217962;56;1139043;-76
2022/05/24 23:00:54;;;;;;;4.00;2.40;;;;;;;16.09;96.80;100216.83;5218083;56;1139053;-74
2022/05/24 23:06:00;;;;;;;8.00;3.20;;;;;;;16.03;96.45;100212.66;5217811;56;1139229;-75
2022/05/24 23:11:08;;;;;;;5.77;2.80;;;;;;;16.00;96.15;100208.48;5217725;56;1138998;-72
2022/05/24 23:16:15;;;;;;;3.77;2.97;;;;;;;15.98;96.05;100205.63;5218876;56;1139064;-74
2022/05/24 23:21:20;;;;;;;3.97;2.40;;;;;;;15.92;95.98;100215.09;5218828;56;1139038;-76
2022/05/24 23:26:26;;;;;;;2.67;2.50;;;;;;;15.86;95.86;100214.42;5159720;56;1139234;-74
2022/05/24 23:31:32;;;;;;;3.53;3.13;;;;;;;15.79;95.60;100205.38;5133238;57;1139001;-76
2022/05/24 23:36:38;;;;;;;3.83;2.93;;;;;;;15.72;95.76;100219.87;5133354;56;1139030;-73
2022/05/24 23:41:44;;;;;;;3.40;3.17;;;;;;;15.65;95.85;100215.31;5198293;56;1139025;-74
2022/05/24 23:46:50;;;;;;;3.53;3.27;;;;;;;15.71;95.92;100223.52;5218810;56;1139017;-76
2022/05/24 23:51:55;;;;;;;4.10;2.97;;;;;;;15.69;95.59;100234.01;5218861;56;1139056;-73
2022/05/24 23:57:01;;;;;;;4.30;3.63;;;;;;;15.60;95.71;100237.60;5219080;56;1139062;-72
